Time;durP1;ratioP1;P1;durP2;ratioP2;P2;SDS_P1;SDS_P2;PMS_P1;PMS_P2;Temp;Humidity;BMP_temperature;BMP_pressure;BME280_temperature;BME280_humidity;BME280_pressure;Samples;Min_cycle;Max_cycle;Signal;HPM_P1;HPM_P2
2023/12/21 00:01:49;;;;;;;;;;;;;;;;;;5048542;28;19940;-59
2023/12/21 00:04:15;;;;;;;;;;;;;;;;;;5051536;28;19991;-60
2023/12/21 00:06:41;;;;;;;;;;;;;;;;;;5051453;28;19942;-59
2023/12/21 00:09:07;;;;;;;;;;;;;;;;;;5051468;28;19916;-59
2023/12/21 00:11:32;;;;;;;;;;;;;;;;;;5051224;28;20418;-59
2023/12/21 00:13:59;;;;;;;;;;;;;;;;;;5049924;28;19920;-60
2023/12/21 00:16:24;;;;;;;;;;;;;;;;;;5048256;28;20016;-60
2023/12/21 00:18:50;;;;;;;;;;;;;;;;;;5051213;28;20033;-60
2023/12/21 00:21:16;;;;;;;;;;;;;;;;;;5042738;28;19920;-59
2023/12/21 00:23:42;;;;;;;;;;;;;;;;;;5046779;28;19920;-59
2023/12/21 00:26:08;;;;;;;;;;;;;;;;;;5051155;28;20004;-59
2023/12/21 00:28:34;;;;;;;;;;;;;;;;;;5050829;28;19969;-60
2023/12/21 00:31:00;;;;;;;;;;;;;;;;;;5050073;28;19913;-60
2023/12/21 00:33:26;;;;;;;;;;;;;;;;;;5050002;28;19921;-59
2023/12/21 00:35:52;;;;;;;;;;;;;;;;;;5042637;28;19913;-59
2023/12/21 00:38:17;;;;;;;;;;;;;;;;;;5050713;28;20057;-60
2023/12/21 00:40:43;;;;;;;;;;;;;;;;;;5050650;28;19923;-59
2023/12/21 00:43:09;;;;;;;;;;;;;;;;;;5043054;28;19912;-60
2023/12/21 00:45:35;;;;;;;;;;;;;;;;;;5053761;28;19955;-59
2023/12/21 00:48:01;;;;;;;;;;;;;;;;;;5055324;28;19916;-60
2023/12/21 00:50:27;;;;;;;;;;;;;;;;;;5054558;28;19948;-59
2023/12/21 00:52:53;;;;;;;;;;;;;;;;;;5054923;28;19999;-59
2023/12/21 00:55:19;;;;;;;;;;;;;;;;;;5052138;28;19917;-59
2023/12/21 00:57:45;;;;;;;;;;;;;;;;;;5051251;28;19919;-59
2023/12/21 01:00:11;;;;;;;;;;;;;;;;;;5054810;28;19927;-59
2023/12/21 01:02:38;;;;;;;;;;;;;;;;;;5038375;28;19963;-61
2023/12/21 01:05:03;;;;;;;;;;;;;;;;;;5054620;28;19951;-59
2023/12/21 01:07:29;;;;;;;;;;;;;;;;;;5050091;28;19956;-59
2023/12/21 01:09:55;;;;;;;;;;;;;;;;;;5046170;28;20276;-60
2023/12/21 01:12:21;;;;;;;;;;;;;;;;;;5052399;28;19917;-59
2023/12/21 01:14:47;;;;;;;;;;;;;;;;;;5052371;28;19919;-59
2023/12/21 01:17:13;;;;;;;;;;;;;;;;;;5054377;28;19913;-60
2023/12/21 01:19:39;;;;;;;;;;;;;;;;;;5037863;28;19916;-64
2023/12/21 01:22:05;;;;;;;;;;;;;;;;;;5050413;28;20016;-65
2023/12/21 01:24:31;;;;;;;;;;;;;;;;;;5054437;28;19921;-65
2023/12/21 01:26:57;;;;;;;;;;;;;;;;;;5054540;28;19996;-65
2023/12/21 01:29:22;;;;;;;;;;;;;;;;;;5053990;28;20110;-65
2023/12/21 01:31:48;;;;;;;;;;;;;;;;;;5048816;28;19995;-65
2023/12/21 01:34:14;;;;;;;;;;;;;;;;;;5054156;28;19935;-65
2023/12/21 01:36:40;;;;;;;;;;;;;;;;;;5051426;28;19964;-65
2023/12/21 01:39:06;;;;;;;;;;;;;;;;;;5053712;28;20011;-65
2023/12/21 01:41:32;;;;;;;;;;;;;;;;;;5050832;28;19917;-64
2023/12/21 01:43:58;;;;;;;;;;;;;;;;;;5048754;28;19948;-63
2023/12/21 01:46:24;;;;;;;;;;;;;;;;;;5054326;28;20439;-65
2023/12/21 01:48:50;;;;;;;;;;;;;;;;;;5053786;28;19917;-65
2023/12/21 01:51:16;;;;;;;;;;;;;;;;;;5048082;28;19913;-63
2023/12/21 01:53:42;;;;;;;;;;;;;;;;;;5054089;28;19965;-65
2023/12/21 01:56:08;;;;;;;;;;;;;;;;;;5050370;28;19996;-66
2023/12/21 01:58:34;;;;;;;;;;;;;;;;;;5050341;28;19923;-65
2023/12/21 02:01:00;;;;;;;;;;;;;;;;;;5041701;28;19998;-63
2023/12/21 02:03:25;;;;;;;;;;;;;;;;;;5041757;28;20046;-63
2023/12/21 02:05:51;;;;;;;;;;;;;;;;;;5054382;28;19908;-63
2023/12/21 02:08:17;;;;;;;;;;;;;;;;;;5053904;28;20023;-64
2023/12/21 02:10:43;;;;;;;;;;;;;;;;;;5049016;28;19921;-64
2023/12/21 02:13:09;;;;;;;;;;;;;;;;;;5049857;28;19950;-64
2023/12/21 02:15:35;;;;;;;;;;;;;;;;;;5052545;28;20011;-64
2023/12/21 02:18:02;;;;;;;;;;;;;;;;;;5053080;28;19913;-64
2023/12/21 02:20:28;;;;;;;;;;;;;;;;;;5052918;28;20407;-64
2023/12/21 02:22:54;;;;;;;;;;;;;;;;;;5053097;28;19948;-64
2023/12/21 02:25:20;;;;;;;;;;;;;;;;;;5056272;28;19919;-64
2023/12/21 02:27:46;;;;;;;;;;;;;;;;;;5045432;28;19975;-63
2023/12/21 02:30:12;;;;;;;;;;;;;;;;;;5053379;28;20289;-64
2023/12/21 02:32:38;;;;;;;;;;;;;;;;;;5051673;28;19956;-64
2023/12/21 02:35:04;;;;;;;;;;;;;;;;;;5053176;28;19925;-64
2023/12/21 02:37:30;;;;;;;;;;;;;;;;;;5053050;28;20407;-63
2023/12/21 02:39:56;;;;;;;;;;;;;;;;;;5054101;28;19948;-64
2023/12/21 02:42:22;;;;;;;;;;;;;;;;;;5057718;28;19912;-63
2023/12/21 02:44:48;;;;;;;;;;;;;;;;;;5050313;28;19948;-63
2023/12/21 02:47:14;;;;;;;;;;;;;;;;;;5053163;28;19921;-64
2023/12/21 02:49:39;;;;;;;;;;;;;;;;;;5051370;28;19942;-63
2023/12/21 02:52:05;;;;;;;;;;;;;;;;;;5052847;28;20360;-63
2023/12/21 02:54:31;;;;;;;;;;;;;;;;;;5055736;28;20019;-63
2023/12/21 02:56:57;;;;;;;;;;;;;;;;;;5050277;28;20273;-63
2023/12/21 02:59:23;;;;;;;;;;;;;;;;;;5047996;28;19947;-64
2023/12/21 03:01:49;;;;;;;;;;;;;;;;;;5052897;28;19982;-63
2023/12/21 03:04:15;;;;;;;;;;;;;;;;;;5051600;28;19917;-63
2023/12/21 03:06:41;;;;;;;;;;;;;;;;;;5052269;28;19920;-63
2023/12/21 03:09:07;;;;;;;;;;;;;;;;;;5052594;28;19952;-60
2023/12/21 03:11:33;;;;;;;;;;;;;;;;;;5058068;28;20393;-59
2023/12/21 03:13:58;;;;;;;;;;;;;;;;;;5052455;28;20055;-59
2023/12/21 03:16:24;;;;;;;;;;;;;;;;;;5050949;28;19921;-59
2023/12/21 03:18:50;;;;;;;;;;;;;;;;;;5052476;28;19917;-59
2023/12/21 03:21:16;;;;;;;;;;;;;;;;;;5052184;28;20458;-60
2023/12/21 03:23:42;;;;;;;;;;;;;;;;;;5052233;28;19999;-60
2023/12/21 03:26:08;;;;;;;;;;;;;;;;;;5052364;28;20279;-58
2023/12/21 03:28:34;;;;;;;;;;;;;;;;;;5051622;28;19947;-60
2023/12/21 03:31:00;;;;;;;;;;;;;;;;;;5048478;28;20365;-59
2023/12/21 03:33:26;;;;;;;;;;;;;;;;;;5040318;28;20414;-59
2023/12/21 03:35:52;;;;;;;;;;;;;;;;;;5036259;28;19913;-58
2023/12/21 03:38:18;;;;;;;;;;;;;;;;;;5051928;28;19913;-59
2023/12/21 03:40:44;;;;;;;;;;;;;;;;;;5051580;28;20024;-59
2023/12/21 03:43:09;;;;;;;;;;;;;;;;;;5050290;28;20010;-58
2023/12/21 03:45:40;;;;;;;;;;;;;;;;;;5051088;28;19917;-59
2023/12/21 03:48:05;;;;;;;;;;;;;;;;;;5061655;28;19912;-60
2023/12/21 03:50:31;;;;;;;;;;;;;;;;;;5051301;28;19958;-59
2023/12/21 03:52:57;;;;;;;;;;;;;;;;;;5052009;28;20284;-59
2023/12/21 03:55:23;;;;;;;;;;;;;;;;;;5053255;28;19937;-58
2023/12/21 03:57:49;;;;;;;;;;;;;;;;;;5045672;28;19944;-59
2023/12/21 04:00:18;;;;;;;;;;;;;;;;;;5052289;28;19970;-59
2023/12/21 04:02:44;;;;;;;;;;;;;;;;;;5072455;28;19912;-59
2023/12/21 04:05:10;;;;;;;;;;;;;;;;;;5046322;28;19913;-59
2023/12/21 04:07:36;;;;;;;;;;;;;;;;;;5052103;28;20007;-60
2023/12/21 04:10:02;;;;;;;;;;;;;;;;;;5051495;28;19917;-58
2023/12/21 04:12:28;;;;;;;;;;;;;;;;;;5055068;28;20253;-60
2023/12/21 04:14:54;;;;;;;;;;;;;;;;;;5049775;28;19964;-59
2023/12/21 04:17:19;;;;;;;;;;;;;;;;;;5052230;28;19915;-58
2023/12/21 04:19:45;;;;;;;;;;;;;;;;;;5054206;28;19917;-63
2023/12/21 04:22:11;;;;;;;;;;;;;;;;;;5054849;28;19917;-63
2023/12/21 04:24:37;;;;;;;;;;;;;;;;;;5055730;28;19912;-64
2023/12/21 04:27:03;;;;;;;;;;;;;;;;;;5051009;28;19913;-63
2023/12/21 04:29:29;;;;;;;;;;;;;;;;;;5054977;28;20058;-63
2023/12/21 04:31:55;;;;;;;;;;;;;;;;;;5054770;28;19947;-63
2023/12/21 04:34:21;;;;;;;;;;;;;;;;;;5055486;28;19956;-63
2023/12/21 04:36:47;;;;;;;;;;;;;;;;;;5055765;28;20308;-64
2023/12/21 04:39:13;;;;;;;;;;;;;;;;;;5045058;28;19975;-63
2023/12/21 04:41:38;;;;;;;;;;;;;;;;;;5048775;28;19912;-64
2023/12/21 04:44:05;;;;;;;;;;;;;;;;;;5054900;28;19946;-63
2023/12/21 04:46:31;;;;;;;;;;;;;;;;;;5055413;28;20012;-63
2023/12/21 04:48:57;;;;;;;;;;;;;;;;;;5055600;28;20011;-62
2023/12/21 04:51:22;;;;;;;;;;;;;;;;;;5055336;28;20338;-63
2023/12/21 04:53:49;;;;;;;;;;;;;;;;;;5054806;28;19917;-63
2023/12/21 04:56:15;;;;;;;;;;;;;;;;;;5055047;28;19990;-63
2023/12/21 04:58:42;;;;;;;;;;;;;;;;;;5042023;28;20292;-62
2023/12/21 05:01:08;;;;;;;;;;;;;;;;;;5052804;28;20004;-63
2023/12/21 05:03:34;;;;;;;;;;;;;;;;;;5048435;28;20499;-63
2023/12/21 05:06:00;;;;;;;;;;;;;;;;;;5054299;28;20372;-62
2023/12/21 05:08:26;;;;;;;;;;;;;;;;;;5053655;28;19948;-63
2023/12/21 05:10:52;;;;;;;;;;;;;;;;;;5051926;28;19927;-63
2023/12/21 05:13:17;;;;;;;;;;;;;;;;;;5046575;28;20380;-61
2023/12/21 05:15:43;;;;;;;;;;;;;;;;;;5052591;28;19996;-63
2023/12/21 05:18:09;;;;;;;;;;;;;;;;;;5046103;28;19913;-63
2023/12/21 05:20:35;;;;;;;;;;;;;;;;;;5047925;28;19913;-62
2023/12/21 05:23:01;;;;;;;;;;;;;;;;;;5049812;28;19959;-62
2023/12/21 05:25:27;;;;;;;;;;;;;;;;;;5051176;28;20372;-63
2023/12/21 05:27:53;;;;;;;;;;;;;;;;;;5051900;28;19913;-62
2023/12/21 05:30:19;;;;;;;;;;;;;;;;;;5050394;28;20300;-63
2023/12/21 05:32:45;;;;;;;;;;;;;;;;;;5041094;28;19917;-62
2023/12/21 05:35:11;;;;;;;;;;;;;;;;;;5050609;28;19968;-62
2023/12/21 05:37:36;;;;;;;;;;;;;;;;;;5052125;28;20408;-62
2023/12/21 05:40:03;;;;;;;;;;;;;;;;;;5052197;28;20039;-62
2023/12/21 05:42:29;;;;;;;;;;;;;;;;;;5050622;28;19920;-62
2023/12/21 05:44:54;;;;;;;;;;;;;;;;;;5046788;28;19921;-62
2023/12/21 05:47:20;;;;;;;;;;;;;;;;;;5049186;28;19979;-62
2023/12/21 05:49:46;;;;;;;;;;;;;;;;;;5051485;28;19924;-62
2023/12/21 05:52:12;;;;;;;;;;;;;;;;;;5050056;28;19920;-62
2023/12/21 05:54:38;;;;;;;;;;;;;;;;;;5047675;28;19956;-63
2023/12/21 05:57:04;;;;;;;;;;;;;;;;;;5040655;28;19952;-62
2023/12/21 05:59:30;;;;;;;;;;;;;;;;;;5051013;28;20011;-63
2023/12/21 06:01:56;;;;;;;;;;;;;;;;;;5045122;28;20019;-62
2023/12/21 06:04:22;;;;;;;;;;;;;;;;;;5048690;28;19920;-62
2023/12/21 06:06:48;;;;;;;;;;;;;;;;;;5053168;28;20035;-62
2023/12/21 06:09:14;;;;;;;;;;;;;;;;;;5050638;28;20050;-62
2023/12/21 06:11:40;;;;;;;;;;;;;;;;;;5056620;28;19948;-62
2023/12/21 06:14:06;;;;;;;;;;;;;;;;;;5050514;28;20446;-63
2023/12/21 06:16:32;;;;;;;;;;;;;;;;;;5046379;28;19913;-62
2023/12/21 06:18:58;;;;;;;;;;;;;;;;;;5046123;28;20275;-62
2023/12/21 06:21:24;;;;;;;;;;;;;;;;;;5052876;28;19923;-62
2023/12/21 06:23:49;;;;;;;;;;;;;;;;;;5048572;28;19913;-63
2023/12/21 06:26:15;;;;;;;;;;;;;;;;;;5041719;28;19935;-62
2023/12/21 06:28:41;;;;;;;;;;;;;;;;;;5048676;28;19909;-62
2023/12/21 06:31:08;;;;;;;;;;;;;;;;;;5039496;28;19959;-62
2023/12/21 06:33:34;;;;;;;;;;;;;;;;;;5049296;28;19921;-62
2023/12/21 06:36:00;;;;;;;;;;;;;;;;;;5053340;28;19990;-62
2023/12/21 06:38:26;;;;;;;;;;;;;;;;;;5048018;28;20000;-62
2023/12/21 06:40:52;;;;;;;;;;;;;;;;;;5043215;28;19912;-62
2023/12/21 06:43:19;;;;;;;;;;;;;;;;;;5043426;28;20295;-62
2023/12/21 06:45:47;;;;;;;;;;;;;;;;;;5045094;28;19982;-61
2023/12/21 06:48:13;;;;;;;;;;;;;;;;;;5043757;28;19913;-62
2023/12/21 06:50:39;;;;;;;;;;;;;;;;;;5042175;28;19912;-62
2023/12/21 06:53:05;;;;;;;;;;;;;;;;;;5043689;28;19979;-62
2023/12/21 06:55:31;;;;;;;;;;;;;;;;;;5046835;28;19917;-63
2023/12/21 06:57:57;;;;;;;;;;;;;;;;;;5059387;28;19995;-62
2023/12/21 07:00:23;;;;;;;;;;;;;;;;;;5043381;28;20364;-62
2023/12/21 07:02:49;;;;;;;;;;;;;;;;;;5048526;28;19938;-62
2023/12/21 07:05:14;;;;;;;;;;;;;;;;;;5056500;28;19916;-63
2023/12/21 07:07:40;;;;;;;;;;;;;;;;;;5038500;28;19952;-63
2023/12/21 07:10:07;;;;;;;;;;;;;;;;;;5050569;28;19923;-63
2023/12/21 07:12:33;;;;;;;;;;;;;;;;;;5042438;28;19913;-62
2023/12/21 07:14:59;;;;;;;;;;;;;;;;;;5051383;28;20387;-63
2023/12/21 07:17:25;;;;;;;;;;;;;;;;;;5046374;28;19912;-62
2023/12/21 07:19:51;;;;;;;;;;;;;;;;;;5041372;28;19913;-63
2023/12/21 07:22:17;;;;;;;;;;;;;;;;;;5042371;28;20428;-62
2023/12/21 07:24:43;;;;;;;;;;;;;;;;;;5043031;28;20061;-62
2023/12/21 07:27:09;;;;;;;;;;;;;;;;;;5050517;28;19982;-62
2023/12/21 07:29:35;;;;;;;;;;;;;;;;;;5039444;28;19917;-63
2023/12/21 07:32:01;;;;;;;;;;;;;;;;;;5057469;28;20407;-63
2023/12/21 07:34:29;;;;;;;;;;;;;;;;;;5040489;28;21380;-62
2023/12/21 07:36:55;;;;;;;;;;;;;;;;;;5049487;28;19966;-62
2023/12/21 07:39:21;;;;;;;;;;;;;;;;;;5041069;28;19955;-63
2023/12/21 07:41:48;;;;;;;;;;;;;;;;;;5040759;28;19917;-63
2023/12/21 07:44:14;;;;;;;;;;;;;;;;;;5039522;28;19951;-63
2023/12/21 07:46:40;;;;;;;;;;;;;;;;;;5046236;28;19913;-63
2023/12/21 07:49:09;;;;;;;;;;;;;;;;;;5039458;28;19953;-62
2023/12/21 07:51:34;;;;;;;;;;;;;;;;;;5048502;28;19951;-63
2023/12/21 07:54:00;;;;;;;;;;;;;;;;;;5037414;28;19952;-64
2023/12/21 07:56:26;;;;;;;;;;;;;;;;;;5036771;28;20007;-64
2023/12/21 07:58:52;;;;;;;;;;;;;;;;;;5041845;28;19923;-63
2023/12/21 08:01:18;;;;;;;;;;;;;;;;;;5048678;28;19980;-64
2023/12/21 08:03:44;;;;;;;;;;;;;;;;;;5049295;28;19932;-64
2023/12/21 08:06:11;;;;;;;;;;;;;;;;;;5047090;28;19916;-63
2023/12/21 08:08:37;;;;;;;;;;;;;;;;;;5041576;28;19978;-64
2023/12/21 08:11:03;;;;;;;;;;;;;;;;;;5039129;28;20309;-63
2023/12/21 08:13:29;;;;;;;;;;;;;;;;;;5048030;28;20126;-63
2023/12/21 08:15:55;;;;;;;;;;;;;;;;;;5048306;28;19927;-63
2023/12/21 08:18:21;;;;;;;;;;;;;;;;;;5050275;28;20303;-63
2023/12/21 08:20:48;;;;;;;;;;;;;;;;;;5044179;28;19913;-63
2023/12/21 08:23:14;;;;;;;;;;;;;;;;;;5041595;28;20390;-63
2023/12/21 08:25:40;;;;;;;;;;;;;;;;;;5037688;28;19916;-64
2023/12/21 08:28:06;;;;;;;;;;;;;;;;;;5042360;28;19936;-64
2023/12/21 08:30:32;;;;;;;;;;;;;;;;;;5045603;28;19952;-62
2023/12/21 08:32:58;;;;;;;;;;;;;;;;;;5041410;28;19956;-63
2023/12/21 08:35:24;;;;;;;;;;;;;;;;;;5042452;28;20365;-62
2023/12/21 08:37:50;;;;;;;;;;;;;;;;;;5049296;28;19971;-63
2023/12/21 08:40:16;;;;;;;;;;;;;;;;;;5046802;28;19959;-62
2023/12/21 08:42:42;;;;;;;;;;;;;;;;;;5031949;28;19931;-63
2023/12/21 08:45:08;;;;;;;;;;;;;;;;;;5041677;28;19966;-64
2023/12/21 08:47:40;;;;;;;;;;;;;;;;;;5042406;28;19910;-64
2023/12/21 08:50:07;;;;;;;;;;;;;;;;;;5044366;28;20330;-62
2023/12/21 08:52:33;;;;;;;;;;;;;;;;;;5047675;28;19913;-62
2023/12/21 08:55:00;;;;;;;;;;;;;;;;;;5037478;28;19996;-64
2023/12/21 08:57:26;;;;;;;;;;;;;;;;;;5045718;28;20026;-64
2023/12/21 08:59:52;;;;;;;;;;;;;;;;;;5043061;28;19948;-61
2023/12/21 09:02:18;;;;;;;;;;;;;;;;;;5042725;28;19959;-61
2023/12/21 09:04:44;;;;;;;;;;;;;;;;;;5051454;28;19952;-63
2023/12/21 09:07:10;;;;;;;;;;;;;;;;;;5053620;28;19912;-64
2023/12/21 09:09:36;;;;;;;;;;;;;;;;;;5043890;28;19920;-62
2023/12/21 09:12:02;;;;;;;;;;;;;;;;;;5062326;28;20322;-64
2023/12/21 09:14:28;;;;;;;;;;;;;;;;;;5038311;28;20015;-64
2023/12/21 09:16:54;;;;;;;;;;;;;;;;;;5054326;28;19978;-61
2023/12/21 09:19:20;;;;;;;;;;;;;;;;;;5046002;28;19914;-64
2023/12/21 09:21:46;;;;;;;;;;;;;;;;;;5046507;28;19927;-65
2023/12/21 09:24:12;;;;;;;;;;;;;;;;;;5040558;28;19963;-64
2023/12/21 09:26:38;;;;;;;;;;;;;;;;;;5049648;28;19913;-65
2023/12/21 09:29:04;;;;;;;;;;;;;;;;;;5048440;28;20013;-64
2023/12/21 09:31:30;;;;;;;;;;;;;;;;;;5038185;28;19917;-63
2023/12/21 09:33:56;;;;;;;;;;;;;;;;;;5047230;28;19923;-61
2023/12/21 09:36:22;;;;;;;;;;;;;;;;;;5038132;28;19952;-63
2023/12/21 09:38:48;;;;;;;;;;;;;;;;;;5038916;28;20398;-63
2023/12/21 09:41:13;;;;;;;;;;;;;;;;;;5050133;28;19999;-63
2023/12/21 09:43:39;;;;;;;;;;;;;;;;;;5048521;28;20119;-64
2023/12/21 09:46:05;;;;;;;;;;;;;;;;;;5051543;28;19974;-63
2023/12/21 09:48:31;;;;;;;;;;;;;;;;;;5038935;28;19913;-63
2023/12/21 09:50:57;;;;;;;;;;;;;;;;;;5041730;28;19958;-63
2023/12/21 09:53:23;;;;;;;;;;;;;;;;;;5046978;28;19979;-64
2023/12/21 09:55:49;;;;;;;;;;;;;;;;;;5045119;28;19909;-62
2023/12/21 09:58:15;;;;;;;;;;;;;;;;;;5044675;28;20380;-62
2023/12/21 10:00:41;;;;;;;;;;;;;;;;;;5050425;28;19917;-63
2023/12/21 10:03:07;;;;;;;;;;;;;;;;;;5048221;28;20045;-62
2023/12/21 10:05:33;;;;;;;;;;;;;;;;;;5053285;28;19952;-60
2023/12/21 10:07:59;;;;;;;;;;;;;;;;;;5053126;28;19960;-61
2023/12/21 10:10:24;;;;;;;;;;;;;;;;;;5052808;28;20393;-61
2023/12/21 10:12:50;;;;;;;;;;;;;;;;;;5064858;28;20011;-59
2023/12/21 10:15:16;;;;;;;;;;;;;;;;;;5049881;28;19967;-59
2023/12/21 10:17:42;;;;;;;;;;;;;;;;;;5052793;28;19916;-62
2023/12/21 10:20:11;;;;;;;;;;;;;;;;;;5045771;28;19948;-62
2023/12/21 10:22:37;;;;;;;;;;;;;;;;;;5037944;28;19916;-62
2023/12/21 10:25:03;;;;;;;;;;;;;;;;;;5041360;28;19909;-62
2023/12/21 10:27:29;;;;;;;;;;;;;;;;;;5047481;28;19992;-62
2023/12/21 10:29:56;;;;;;;;;;;;;;;;;;5041105;28;19931;-62
2023/12/21 10:32:21;;;;;;;;;;;;;;;;;;5047657;28;20421;-62
2023/12/21 10:34:47;;;;;;;;;;;;;;;;;;5044347;28;20015;-60
2023/12/21 10:37:13;;;;;;;;;;;;;;;;;;5041328;28;19992;-62
2023/12/21 10:39:39;;;;;;;;;;;;;;;;;;5040906;28;20395;-62
2023/12/21 10:42:05;;;;;;;;;;;;;;;;;;5046142;28;19914;-62
2023/12/21 10:44:31;;;;;;;;;;;;;;;;;;5044440;28;19909;-62
2023/12/21 10:46:57;;;;;;;;;;;;;;;;;;5047374;28;19996;-60
2023/12/21 10:49:23;;;;;;;;;;;;;;;;;;5046168;28;20033;-62
2023/12/21 10:51:49;;;;;;;;;;;;;;;;;;5046673;28;19951;-63
2023/12/21 10:54:16;;;;;;;;;;;;;;;;;;5051754;28;20360;-60
2023/12/21 10:56:42;;;;;;;;;;;;;;;;;;5044071;28;19913;-62
2023/12/21 10:59:08;;;;;;;;;;;;;;;;;;5047420;28;19971;-63
2023/12/21 11:01:34;;;;;;;;;;;;;;;;;;5035397;28;19940;-62
2023/12/21 11:04:00;;;;;;;;;;;;;;;;;;5051416;28;19919;-59
2023/12/21 11:06:26;;;;;;;;;;;;;;;;;;5046453;28;20030;-60
2023/12/21 11:08:52;;;;;;;;;;;;;;;;;;5039794;28;19913;-62
2023/12/21 11:11:22;;;;;;;;;;;;;;;;;;5041884;28;20016;-62
2023/12/21 11:13:52;;;;;;;;;;;;;;;;;;5047631;28;19928;-62
2023/12/21 11:16:18;;;;;;;;;;;;;;;;;;5046538;28;19956;-61
2023/12/21 11:18:44;;;;;;;;;;;;;;;;;;5049647;28;20332;-61
2023/12/21 11:21:10;;;;;;;;;;;;;;;;;;5044194;28;20007;-61
2023/12/21 11:23:36;;;;;;;;;;;;;;;;;;5051091;28;19909;-62
2023/12/21 11:26:04;;;;;;;;;;;;;;;;;;5048028;28;19919;-62
2023/12/21 11:28:32;;;;;;;;;;;;;;;;;;5038866;28;19971;-62
2023/12/21 11:30:58;;;;;;;;;;;;;;;;;;5048181;28;19913;-62
2023/12/21 11:33:24;;;;;;;;;;;;;;;;;;5047806;28;19956;-61
2023/12/21 11:35:49;;;;;;;;;;;;;;;;;;5049350;28;19912;-61
2023/12/21 11:38:15;;;;;;;;;;;;;;;;;;5049816;28;19919;-62
2023/12/21 11:40:42;;;;;;;;;;;;;;;;;;5044168;28;19953;-62
2023/12/21 11:43:08;;;;;;;;;;;;;;;;;;5031935;28;19964;-62
2023/12/21 11:45:37;;;;;;;;;;;;;;;;;;5038926;28;20349;-62
2023/12/21 11:48:04;;;;;;;;;;;;;;;;;;5051177;28;20070;-62
2023/12/21 11:50:33;;;;;;;;;;;;;;;;;;5034071;28;19995;-62
2023/12/21 11:52:59;;;;;;;;;;;;;;;;;;5038477;28;19936;-62
2023/12/21 11:55:25;;;;;;;;;;;;;;;;;;5045070;28;19913;-62
2023/12/21 11:57:51;;;;;;;;;;;;;;;;;;5044779;28;20000;-62
2023/12/21 12:00:17;;;;;;;;;;;;;;;;;;5039643;28;20324;-61
2023/12/21 12:02:46;;;;;;;;;;;;;;;;;;5044623;28;19999;-61
2023/12/21 12:05:14;;;;;;;;;;;;;;;;;;5048447;28;19916;-63
2023/12/21 12:07:40;;;;;;;;;;;;;;;;;;5038074;28;19909;-62
2023/12/21 12:10:05;;;;;;;;;;;;;;;;;;5041889;28;19975;-62
2023/12/21 12:12:32;;;;;;;;;;;;;;;;;;5056622;28;20418;-62
2023/12/21 12:14:58;;;;;;;;;;;;;;;;;;5038347;28;19924;-62
2023/12/21 12:17:26;;;;;;;;;;;;;;;;;;5048121;28;19965;-62
2023/12/21 12:19:52;;;;;;;;;;;;;;;;;;5040478;28;19924;-62
2023/12/21 12:22:18;;;;;;;;;;;;;;;;;;5037830;28;19920;-62
2023/12/21 12:24:46;;;;;;;;;;;;;;;;;;5042163;28;19979;-62
2023/12/21 12:27:12;;;;;;;;;;;;;;;;;;5045313;28;20407;-62
2023/12/21 12:29:38;;;;;;;;;;;;;;;;;;5047278;28;19940;-63
2023/12/21 12:32:04;;;;;;;;;;;;;;;;;;5048432;28;19925;-62
2023/12/21 12:34:30;;;;;;;;;;;;;;;;;;5040024;28;19955;-63
2023/12/21 12:36:56;;;;;;;;;;;;;;;;;;5037745;28;20019;-63
2023/12/21 12:39:22;;;;;;;;;;;;;;;;;;5041879;28;19909;-63
2023/12/21 12:41:48;;;;;;;;;;;;;;;;;;5044063;28;19927;-63
2023/12/21 12:44:14;;;;;;;;;;;;;;;;;;5047726;28;19952;-63
2023/12/21 12:46:39;;;;;;;;;;;;;;;;;;5053258;28;19912;-63
2023/12/21 12:49:05;;;;;;;;;;;;;;;;;;5043285;28;19935;-63
2023/12/21 12:51:31;;;;;;;;;;;;;;;;;;5047513;28;19948;-62
2023/12/21 12:53:57;;;;;;;;;;;;;;;;;;5054684;28;19969;-63
2023/12/21 12:56:25;;;;;;;;;;;;;;;;;;5041422;28;20413;-63
2023/12/21 12:58:51;;;;;;;;;;;;;;;;;;5045943;28;20047;-62
2023/12/21 13:01:17;;;;;;;;;;;;;;;;;;5047592;28;19948;-62
2023/12/21 13:03:42;;;;;;;;;;;;;;;;;;5050280;28;20004;-63
2023/12/21 13:06:08;;;;;;;;;;;;;;;;;;5052596;28;19920;-63
2023/12/21 13:08:34;;;;;;;;;;;;;;;;;;5051793;28;19947;-63
2023/12/21 13:11:00;;;;;;;;;;;;;;;;;;5039462;28;19963;-63
2023/12/21 13:13:26;;;;;;;;;;;;;;;;;;5048836;28;19924;-62
2023/12/21 13:15:52;;;;;;;;;;;;;;;;;;5052434;28;19996;-62
2023/12/21 13:18:18;;;;;;;;;;;;;;;;;;5053914;28;19917;-62
2023/12/21 13:20:44;;;;;;;;;;;;;;;;;;5050478;28;19949;-62
2023/12/21 13:23:13;;;;;;;;;;;;;;;;;;5053286;28;19920;-62
2023/12/21 13:25:39;;;;;;;;;;;;;;;;;;5043094;28;19920;-63
2023/12/21 13:28:05;;;;;;;;;;;;;;;;;;5044793;28;19955;-62
2023/12/21 13:30:31;;;;;;;;;;;;;;;;;;5050289;28;19913;-62
2023/12/21 13:32:56;;;;;;;;;;;;;;;;;;5043659;28;20000;-62
2023/12/21 13:35:22;;;;;;;;;;;;;;;;;;5045688;28;19912;-62
2023/12/21 13:37:48;;;;;;;;;;;;;;;;;;5046282;28;19913;-62
2023/12/21 13:40:14;;;;;;;;;;;;;;;;;;5049395;28;19998;-58
2023/12/21 13:42:40;;;;;;;;;;;;;;;;;;5048898;28;20422;-59
2023/12/21 13:45:06;;;;;;;;;;;;;;;;;;5044993;28;19975;-56
2023/12/21 13:47:34;;;;;;;;;;;;;;;;;;5052939;28;20384;-56
2023/12/21 13:50:00;;;;;;;;;;;;;;;;;;5052578;28;19920;-56
2023/12/21 13:52:26;;;;;;;;;;;;;;;;;;5050446;28;20063;-59
2023/12/21 13:54:51;;;;;;;;;;;;;;;;;;5048110;28;19917;-58
2023/12/21 13:57:18;;;;;;;;;;;;;;;;;;5044366;28;19917;-59
2023/12/21 13:59:44;;;;;;;;;;;;;;;;;;5038022;28;20003;-59
2023/12/21 14:02:09;;;;;;;;;;;;;;;;;;5049701;28;20323;-56
2023/12/21 14:04:35;;;;;;;;;;;;;;;;;;5046861;28;19939;-59
2023/12/21 14:07:01;;;;;;;;;;;;;;;;;;5043113;28;19916;-59
2023/12/21 14:09:28;;;;;;;;;;;;;;;;;;5046207;28;20360;-59
2023/12/21 14:11:53;;;;;;;;;;;;;;;;;;5044471;28;19932;-60
2023/12/21 14:14:19;;;;;;;;;;;;;;;;;;5050983;28;20395;-59
2023/12/21 14:16:45;;;;;;;;;;;;;;;;;;5040442;28;19944;-59
2023/12/21 14:19:11;;;;;;;;;;;;;;;;;;5049513;28;20015;-60
2023/12/21 14:21:37;;;;;;;;;;;;;;;;;;5047931;28;20404;-59
2023/12/21 14:24:03;;;;;;;;;;;;;;;;;;5046907;28;19913;-60
2023/12/21 14:26:29;;;;;;;;;;;;;;;;;;5044345;28;20365;-59
2023/12/21 14:28:55;;;;;;;;;;;;;;;;;;5039830;28;20959;-59
2023/12/21 14:31:21;;;;;;;;;;;;;;;;;;5041247;28;19913;-58
2023/12/21 14:33:47;;;;;;;;;;;;;;;;;;5043677;28;20400;-56
2023/12/21 14:36:12;;;;;;;;;;;;;;;;;;5049632;28;19913;-59
2023/12/21 14:38:38;;;;;;;;;;;;;;;;;;5049287;28;20051;-58
2023/12/21 14:41:04;;;;;;;;;;;;;;;;;;5049184;28;19916;-58
2023/12/21 14:43:31;;;;;;;;;;;;;;;;;;5050347;28;20395;-58
2023/12/21 14:45:57;;;;;;;;;;;;;;;;;;5051773;28;19959;-59
2023/12/21 14:48:23;;;;;;;;;;;;;;;;;;5039716;28;20389;-58
2023/12/21 14:50:50;;;;;;;;;;;;;;;;;;5052012;28;19915;-62
2023/12/21 14:53:16;;;;;;;;;;;;;;;;;;5039951;28;20359;-61
2023/12/21 14:55:42;;;;;;;;;;;;;;;;;;5053092;28;19992;-61
2023/12/21 14:58:08;;;;;;;;;;;;;;;;;;5048353;28;19948;-62
2023/12/21 15:00:34;;;;;;;;;;;;;;;;;;5043519;28;20002;-62
2023/12/21 15:03:00;;;;;;;;;;;;;;;;;;5043299;28;20070;-62
2023/12/21 15:05:26;;;;;;;;;;;;;;;;;;5050369;28;19916;-62
2023/12/21 15:07:52;;;;;;;;;;;;;;;;;;5037125;28;20038;-62
2023/12/21 15:10:18;;;;;;;;;;;;;;;;;;5041840;28;19960;-62
2023/12/21 15:12:44;;;;;;;;;;;;;;;;;;5060332;28;19909;-62
2023/12/21 15:15:10;;;;;;;;;;;;;;;;;;5041896;28;20460;-62
2023/12/21 15:17:36;;;;;;;;;;;;;;;;;;5049791;28;20284;-61
2023/12/21 15:20:03;;;;;;;;;;;;;;;;;;5041852;28;19909;-61
2023/12/21 15:22:29;;;;;;;;;;;;;;;;;;5052753;28;19920;-62
2023/12/21 15:24:55;;;;;;;;;;;;;;;;;;5050318;28;19969;-61
2023/12/21 15:27:21;;;;;;;;;;;;;;;;;;5045816;28;20361;-61
2023/12/21 15:29:47;;;;;;;;;;;;;;;;;;5041396;28;19917;-61
2023/12/21 15:32:13;;;;;;;;;;;;;;;;;;5048148;28;19965;-62
2023/12/21 15:34:39;;;;;;;;;;;;;;;;;;5042937;28;19913;-62
2023/12/21 15:37:06;;;;;;;;;;;;;;;;;;5048467;28;19917;-62
2023/12/21 15:39:32;;;;;;;;;;;;;;;;;;5052203;28;19909;-61
2023/12/21 15:41:57;;;;;;;;;;;;;;;;;;5048997;28;19959;-62
2023/12/21 15:44:24;;;;;;;;;;;;;;;;;;5044913;28;20000;-62
2023/12/21 15:46:50;;;;;;;;;;;;;;;;;;5043166;28;19919;-61
2023/12/21 15:49:16;;;;;;;;;;;;;;;;;;5046072;28;19948;-62
2023/12/21 15:51:42;;;;;;;;;;;;;;;;;;5049215;28;20427;-62
2023/12/21 15:54:13;;;;;;;;;;;;;;;;;;5052102;28;19971;-62
2023/12/21 15:56:39;;;;;;;;;;;;;;;;;;5042149;28;19913;-62
2023/12/21 15:59:05;;;;;;;;;;;;;;;;;;5041108;28;19955;-60
2023/12/21 16:01:31;;;;;;;;;;;;;;;;;;5049943;28;20011;-60
2023/12/21 16:03:57;;;;;;;;;;;;;;;;;;5044964;28;19956;-60
2023/12/21 16:06:23;;;;;;;;;;;;;;;;;;5044363;28;19960;-60
2023/12/21 16:08:50;;;;;;;;;;;;;;;;;;5049090;28;19968;-60
2023/12/21 16:11:16;;;;;;;;;;;;;;;;;;5047453;28;20391;-61
2023/12/21 16:13:41;;;;;;;;;;;;;;;;;;5051692;28;19971;-60
2023/12/21 16:16:07;;;;;;;;;;;;;;;;;;5053248;28;19916;-60
2023/12/21 16:18:33;;;;;;;;;;;;;;;;;;5055129;28;19958;-60
2023/12/21 16:21:00;;;;;;;;;;;;;;;;;;5043701;28;20014;-61
2023/12/21 16:23:26;;;;;;;;;;;;;;;;;;5051996;28;20261;-61
2023/12/21 16:25:52;;;;;;;;;;;;;;;;;;5047082;28;19936;-60
2023/12/21 16:28:18;;;;;;;;;;;;;;;;;;5052486;28;20407;-60
2023/12/21 16:30:44;;;;;;;;;;;;;;;;;;5048559;28;20007;-61
2023/12/21 16:33:10;;;;;;;;;;;;;;;;;;5050530;28;20011;-60
2023/12/21 16:35:36;;;;;;;;;;;;;;;;;;5053359;28;19934;-60
2023/12/21 16:38:03;;;;;;;;;;;;;;;;;;5052347;28;19974;-61